createdAt,value
2022-08-04T00:02:04.429Z,101518.84
2022-08-04T00:07:17.849Z,101520.78
2022-08-04T00:12:31.477Z,101521.63
2022-08-04T00:17:40.783Z,101519.97
2022-08-04T00:22:50.154Z,101521.87
2022-08-04T00:27:53.265Z,101513.84
2022-08-04T00:32:58.270Z,101516.06
2022-08-04T00:38:06.764Z,101509.69
2022-08-04T00:43:17.949Z,101515.75
2022-08-04T00:48:33.046Z,101510.22
2022-08-04T00:53:56.139Z,101506.84
2022-08-04T00:59:05.229Z,101503.22
2022-08-04T01:04:22.022Z,101506.25
2022-08-04T01:09:45.161Z,101497.63
2022-08-04T01:15:15.359Z,101501.25
2022-08-04T01:26:15.285Z,101504.56
2022-08-04T01:31:36.326Z,101490.09
2022-08-04T01:36:50.104Z,101494.22
2022-08-04T01:41:58.404Z,101500.03
2022-08-04T01:52:28.884Z,101486.72
2022-08-04T01:57:38.153Z,101488.28
2022-08-04T02:08:18.922Z,101478.56
2022-08-04T02:13:28.139Z,101484.91
2022-08-04T02:18:34.225Z,101488.72
2022-08-04T02:23:42.700Z,101490.06
2022-08-04T02:28:49.593Z,101488.38
2022-08-04T02:34:02.784Z,101491.13
2022-08-04T02:39:12.443Z,101493.00
2022-08-04T02:44:19.300Z,101484.09
2022-08-04T02:49:23.876Z,101475.19
2022-08-04T02:54:39.753Z,101476.25
2022-08-04T02:59:55.011Z,101471.81
2022-08-04T03:05:01.739Z,101464.53
2022-08-04T03:10:43.543Z,101459.78
2022-08-04T03:16:04.379Z,101463.09
2022-08-04T03:21:37.360Z,101457.78
2022-08-04T03:27:07.168Z,101453.87
2022-08-04T03:32:51.033Z,101457.69
2022-08-04T03:38:18.219Z,101462.69
2022-08-04T03:44:00.470Z,101460.69
2022-08-04T03:49:37.131Z,101465.09
2022-08-04T03:54:59.713Z,101461.19
2022-08-04T04:06:00.165Z,101460.16
2022-08-04T04:11:31.258Z,101455.44
2022-08-04T04:16:56.806Z,101461.22
2022-08-04T04:22:19.071Z,101465.41
2022-08-04T04:27:34.863Z,101457.41
2022-08-04T04:33:00.729Z,101465.22
2022-08-04T04:38:46.015Z,101473.03
2022-08-04T04:44:05.697Z,101470.91
2022-08-04T04:49:18.533Z,101465.72
2022-08-04T04:54:35.634Z,101454.44
2022-08-04T04:59:45.364Z,101466.22
2022-08-04T05:05:16.567Z,101461.84
2022-08-04T05:10:40.754Z,101456.38
2022-08-04T05:21:15.389Z,101464.03
2022-08-04T05:26:24.604Z,101467.09
2022-08-04T05:31:30.372Z,101456.59
2022-08-04T05:36:42.120Z,101460.78
2022-08-04T05:41:48.079Z,101461.06
2022-08-04T05:47:00.612Z,101457.13
2022-08-04T05:52:10.857Z,101446.81
2022-08-04T05:57:14.720Z,101446.13
2022-08-04T06:02:20.609Z,101439.06
2022-08-04T06:07:28.959Z,101441.66
2022-08-04T06:12:37.961Z,101442.00
2022-08-04T06:18:32.976Z,101446.19
2022-08-04T06:23:16.915Z,101449.19
2022-08-04T06:28:21.026Z,101447.72
2022-08-04T06:33:24.595Z,101448.97
2022-08-04T06:38:34.544Z,101457.69
2022-08-04T06:43:43.062Z,101459.12
2022-08-04T06:48:47.766Z,101449.91
2022-08-04T06:53:56.196Z,101450.13
2022-08-04T06:59:02.144Z,101448.28
2022-08-04T07:04:06.289Z,101436.31
2022-08-04T07:09:14.456Z,101434.97
2022-08-04T07:14:18.682Z,101442.56
2022-08-04T07:19:21.388Z,101440.81
2022-08-04T07:29:42.882Z,101440.31
2022-08-04T07:34:49.791Z,101443.53
2022-08-04T07:39:53.025Z,101440.56
2022-08-04T07:45:01.646Z,101445.38
2022-08-04T07:55:24.050Z,101429.03
2022-08-04T08:00:26.861Z,101431.22
2022-08-04T08:05:30.068Z,101419.06
2022-08-04T08:10:38.992Z,101428.91
2022-08-04T08:15:42.634Z,101424.59
2022-08-04T08:20:46.513Z,101417.84
2022-08-04T08:25:55.421Z,101418.59
2022-08-04T08:30:59.439Z,101412.81
2022-08-04T08:41:52.145Z,101411.88
2022-08-04T08:47:08.587Z,101410.22
2022-08-04T08:52:57.288Z,101400.19
2022-08-04T08:58:08.360Z,101400.25
2022-08-04T09:03:39.561Z,101398.00
2022-08-04T09:09:15.910Z,101390.31
2022-08-04T09:14:32.833Z,101393.09
2022-08-04T09:19:43.467Z,101386.50
2022-08-04T09:24:55.166Z,101383.13
2022-08-04T09:30:08.393Z,101384.62
2022-08-04T09:35:34.743Z,101387.94
2022-08-04T09:40:53.159Z,101387.81
2022-08-04T09:51:56.878Z,101377.91
2022-08-04T09:57:11.944Z,101372.37
2022-08-04T10:02:20.154Z,101376.31
2022-08-04T10:07:59.731Z,101376.66
2022-08-04T10:13:26.935Z,101379.50
2022-08-04T10:18:45.082Z,101379.31
2022-08-04T10:24:06.580Z,101361.88
2022-08-04T10:29:15.488Z,101362.34
2022-08-04T10:34:22.549Z,101353.34
2022-08-04T10:39:43.993Z,101350.03
2022-08-04T10:44:57.823Z,101354.00
2022-08-04T10:50:03.828Z,101337.12
2022-08-04T10:55:18.270Z,101345.81
2022-08-04T11:00:25.606Z,101341.75
2022-08-04T11:05:43.817Z,101335.69
2022-08-04T11:10:58.543Z,101326.75
2022-08-04T11:16:05.072Z,101324.44
2022-08-04T11:21:13.939Z,101326.97
2022-08-04T11:26:30.745Z,101311.47
2022-08-04T11:31:36.872Z,101322.50
2022-08-04T11:36:47.458Z,101310.66
2022-08-04T11:41:59.353Z,101328.63
2022-08-04T11:47:05.925Z,101311.87
2022-08-04T11:52:11.676Z,101313.91
2022-08-04T11:57:20.187Z,101312.22
2022-08-04T12:02:42.941Z,101315.00
2022-08-04T12:07:56.493Z,101302.22
2022-08-04T12:13:14.684Z,101305.88
2022-08-04T12:18:24.639Z,101301.31
2022-08-04T12:23:34.438Z,101298.78
2022-08-04T12:29:08.962Z,101293.41
2022-08-04T12:34:14.016Z,101285.19
2022-08-04T12:50:03.091Z,101276.25
2022-08-04T13:05:55.789Z,101257.41
2022-08-04T13:10:59.747Z,101250.16
2022-08-04T13:16:05.271Z,101254.25
2022-08-04T13:21:22.888Z,101240.84
2022-08-04T13:26:56.490Z,101228.56
2022-08-04T13:32:00.935Z,101237.94
2022-08-04T13:37:10.756Z,101231.38
2022-08-04T13:42:26.305Z,101228.69
2022-08-04T13:47:32.555Z,101216.97
2022-08-04T13:52:41.680Z,101218.03
2022-08-04T13:57:47.008Z,101200.63
2022-08-04T14:02:53.492Z,101203.59
2022-08-04T14:08:08.546Z,101196.66
2022-08-04T14:13:11.536Z,101183.97
2022-08-04T14:18:21.933Z,101176.13
2022-08-04T14:23:31.757Z,101171.16
2022-08-04T14:29:09.843Z,101171.56
2022-08-04T14:34:04.126Z,101163.00
2022-08-04T14:39:13.523Z,101154.53
2022-08-04T14:44:17.066Z,101155.37
2022-08-04T14:49:20.138Z,101147.22
2022-08-04T14:54:34.810Z,101142.72
2022-08-04T14:59:58.867Z,101140.69
2022-08-04T15:15:43.499Z,101125.03
2022-08-04T15:26:37.814Z,101112.47
2022-08-04T15:32:06.494Z,101112.06
2022-08-04T15:37:08.089Z,101109.66
2022-08-04T15:42:25.195Z,101108.09
2022-08-04T15:47:28.177Z,101101.56
2022-08-04T15:52:31.950Z,101096.25
2022-08-04T15:58:06.050Z,101086.88
2022-08-04T16:04:00.278Z,101094.63
2022-08-04T16:09:05.904Z,101091.37
2022-08-04T16:14:09.723Z,101087.72
2022-08-04T16:19:34.964Z,101085.28
2022-08-04T16:24:39.255Z,101076.34
2022-08-04T16:29:42.988Z,101082.50
2022-08-04T16:34:56.272Z,101081.69
2022-08-04T16:40:29.818Z,101077.59
2022-08-04T16:45:45.010Z,101070.28
2022-08-04T16:50:56.107Z,101069.88
2022-08-04T16:55:58.857Z,101070.25
2022-08-04T17:01:08.791Z,101068.63
2022-08-04T17:06:18.444Z,101061.63
2022-08-04T17:16:42.657Z,101061.13
2022-08-04T17:21:45.741Z,101058.28
2022-08-04T17:26:54.045Z,101062.41
2022-08-04T17:32:03.101Z,101066.84
2022-08-04T17:42:30.352Z,101049.84
2022-08-04T17:47:50.065Z,101037.00
2022-08-04T17:53:01.225Z,101048.16
2022-08-04T17:58:20.614Z,101045.91
2022-08-04T18:03:30.329Z,101051.13
2022-08-04T18:08:39.958Z,101050.19
2022-08-04T18:13:44.590Z,101058.88
2022-08-04T18:19:09.169Z,101063.72
2022-08-04T18:24:11.954Z,101070.50
2022-08-04T18:29:31.293Z,101068.25
2022-08-04T18:34:40.874Z,101082.72
2022-08-04T18:40:10.204Z,101080.81
2022-08-04T18:45:20.711Z,101086.09
2022-08-04T18:50:59.138Z,101080.84
2022-08-04T18:55:56.489Z,101090.84
2022-08-04T19:01:01.288Z,101095.22
2022-08-04T19:06:09.802Z,101099.69
2022-08-04T19:11:37.355Z,101117.09
2022-08-04T19:16:35.739Z,101227.56
2022-08-04T19:21:59.321Z,101279.72
2022-08-04T19:27:07.073Z,101312.13
2022-08-04T19:32:14.525Z,101315.28
2022-08-04T19:42:46.803Z,101306.59
2022-08-04T19:48:21.981Z,101310.91
2022-08-04T19:53:37.306Z,101286.78
2022-08-04T19:58:40.951Z,101264.41
2022-08-04T20:04:09.835Z,101266.38
2022-08-04T20:09:26.313Z,101253.69
2022-08-04T20:14:32.639Z,101211.72
2022-08-04T20:19:36.285Z,101204.34
2022-08-04T20:24:52.044Z,101229.94
2022-08-04T20:30:14.004Z,101260.75
2022-08-04T20:35:21.776Z,101296.06
2022-08-04T20:45:56.355Z,101283.25
2022-08-04T20:51:01.756Z,101262.88
2022-08-04T20:56:04.696Z,101265.34
2022-08-04T21:01:14.825Z,101236.25
2022-08-04T21:06:19.112Z,101237.28
2022-08-04T21:11:23.588Z,101219.72
2022-08-04T21:16:55.503Z,101214.94
2022-08-04T21:21:55.512Z,101210.09
2022-08-04T21:26:58.397Z,101213.88
2022-08-04T21:32:08.261Z,101224.63
2022-08-04T21:37:58.126Z,101254.03
2022-08-04T21:42:53.621Z,101286.78
2022-08-04T21:47:56.578Z,101316.31
2022-08-04T21:58:26.834Z,101329.31
2022-08-04T22:03:53.000Z,101308.53
2022-08-04T22:08:57.639Z,101293.91
2022-08-04T22:14:11.189Z,101284.87
2022-08-04T22:19:14.529Z,101265.41
2022-08-04T22:24:26.798Z,101262.16
2022-08-04T22:29:39.356Z,101263.84
2022-08-04T22:34:53.256Z,101254.13
2022-08-04T22:39:57.216Z,101262.41
2022-08-04T22:45:07.920Z,101268.09
2022-08-04T22:50:27.462Z,101275.44
2022-08-04T22:56:07.162Z,101270.25
2022-08-04T23:00:58.981Z,101246.41
2022-08-04T23:06:04.481Z,101217.81
2022-08-04T23:11:09.214Z,101215.66
2022-08-04T23:16:17.841Z,101209.00
2022-08-04T23:21:24.036Z,101222.69
2022-08-04T23:26:28.295Z,101235.28
2022-08-04T23:31:40.399Z,101232.75
2022-08-04T23:36:44.390Z,101223.56
2022-08-04T23:41:51.404Z,101194.66
2022-08-04T23:47:05.591Z,101191.41
2022-08-04T23:52:09.812Z,101179.25
2022-08-04T23:58:02.176Z,101202.16
